Time;durP1;ratioP1;P1;durP2;ratioP2;P2;SDS_P1;SDS_P2;PMS_P1;PMS_P2;Temp;Humidity;BMP_temperature;BMP_pressure;BME280_temperature;BME280_humidity;BME280_pressure;Samples;Min_cycle;Max_cycle;Signal;HPM_P1;HPM_P2
2023/08/19 00:00:26;;;;;;;;;;;22.10;74.40;;;21.29;63.71;99540.31;10366592;28;902;-73
2023/08/19 00:05:21;;;;;;;;;;;22.10;74.40;;;21.28;63.50;99523.56;10367468;28;882;-73
2023/08/19 00:10:17;;;;;;;;;;;22.10;74.50;;;21.29;63.61;99524.41;10366609;28;918;-73
2023/08/19 00:15:12;;;;;;;;;;;22.10;74.50;;;21.28;63.44;99517.44;10366560;28;1968;-73
2023/08/19 00:20:09;;;;;;;;;;;22.10;74.40;;;21.28;63.60;99512.13;10366536;28;803;-73
2023/08/19 00:25:04;;;;;;;;;;;22.10;74.40;;;21.29;63.67;99511.16;10365987;28;817;-73
2023/08/19 00:30:00;;;;;;;;;;;22.10;74.20;;;21.29;63.42;99513.81;10367209;28;1267;-73
2023/08/19 00:34:55;;;;;;;;;;;22.10;74.20;;;21.29;63.64;99508.50;10367140;28;1969;-73
2023/08/19 00:39:50;;;;;;;;;;;22.10;74.20;;;21.28;63.46;99497.06;10366151;28;787;-73
2023/08/19 00:44:46;;;;;;;;;;;22.10;74.20;;;21.29;63.58;99500.56;10347816;28;918;-73
2023/08/19 00:49:41;;;;;;;;;;;22.10;74.10;;;21.29;63.65;99497.91;10365997;28;787;-73
2023/08/19 00:54:37;;;;;;;;;;;22.10;74.20;;;21.28;63.42;99499.72;10365815;28;1901;-73
2023/08/19 00:59:32;;;;;;;;;;;22.10;74.10;;;21.29;63.41;99505.88;10366290;28;843;-73
2023/08/19 01:04:27;;;;;;;;;;;22.10;74.10;;;21.28;63.61;99494.41;10365140;28;937;-73
2023/08/19 01:09:23;;;;;;;;;;;22.10;74.10;;;21.28;63.47;99498.88;10365595;28;897;-73
2023/08/19 01:14:18;;;;;;;;;;;22.10;74.00;;;21.28;63.37;99491.75;10365531;28;1969;-73
2023/08/19 01:19:13;;;;;;;;;;;22.10;74.20;;;21.28;63.66;99488.25;10366008;28;909;-73
2023/08/19 01:24:09;;;;;;;;;;;22.10;74.00;;;21.28;63.51;99497.06;10364887;28;816;-73
2023/08/19 01:29:04;;;;;;;;;;;22.10;74.10;;;21.28;63.51;99475.84;10365008;28;1211;-73
2023/08/19 01:34:00;;;;;;;;;;;22.10;74.00;;;21.28;63.36;99477.66;10365023;28;1909;-73
2023/08/19 01:38:55;;;;;;;;;;;22.10;74.00;;;21.28;63.65;99475.84;10369821;28;943;-73
2023/08/19 01:43:50;;;;;;;;;;;22.10;74.00;;;21.29;63.62;99479.34;10371646;28;1020;-73
2023/08/19 01:48:46;;;;;;;;;;;22.10;74.10;;;21.28;63.36;99475.00;10372740;28;886;-73
2023/08/19 01:53:41;;;;;;;;;;;22.10;73.90;;;21.28;63.65;99485.63;10371872;28;1910;-73
2023/08/19 01:58:36;;;;;;;;;;;22.10;74.00;;;21.28;63.58;99482.97;10372336;28;881;-73
2023/08/19 02:03:32;;;;;;;;;;;22.10;74.00;;;21.28;63.54;99491.75;10371577;28;872;-73
2023/08/19 02:08:27;;;;;;;;;;;22.10;73.90;;;21.28;63.42;99494.41;10371967;28;870;-73
2023/08/19 02:13:23;;;;;;;;;;;22.10;73.80;;;21.27;63.58;99492.69;10371775;28;1906;-73
2023/08/19 02:18:18;;;;;;;;;;;22.10;73.90;;;21.28;63.35;99493.56;10371632;28;869;-73
2023/08/19 02:23:14;;;;;;;;;;;22.10;73.90;;;21.27;63.41;99490.03;10371365;28;814;-73
2023/08/19 02:28:09;;;;;;;;;;;22.10;73.90;;;21.28;63.33;99485.63;10370393;28;1305;-73
2023/08/19 02:33:04;;;;;;;;;;;22.10;73.90;;;21.28;63.61;99485.63;10371259;28;1917;-73
2023/08/19 02:38:00;;;;;;;;;;;22.10;73.80;;;21.27;63.54;99479.44;10370230;28;850;-73
2023/08/19 02:42:55;;;;;;;;;;;22.10;73.90;;;21.27;63.33;99481.25;10370031;28;815;-73
2023/08/19 02:47:50;;;;;;;;;;;22.10;73.90;;;21.27;63.57;99478.59;10370291;28;905;-73
2023/08/19 02:52:46;;;;;;;;;;;22.10;73.80;;;21.27;63.43;99478.59;10370219;28;832;-73
2023/08/19 02:57:41;;;;;;;;;;;22.10;73.80;;;21.27;63.54;99475.94;10369351;28;1975;-73
2023/08/19 03:02:37;;;;;;;;;;;22.10;73.80;;;21.28;63.56;99472.34;10370486;28;870;-73
2023/08/19 03:07:32;;;;;;;;;;;22.10;73.90;;;21.27;63.33;99475.94;10368978;28;834;-73
2023/08/19 03:12:27;;;;;;;;;;;22.10;73.90;;;21.27;63.49;99474.13;10369451;28;814;-73
2023/08/19 03:17:23;;;;;;;;;;;22.10;73.80;;;21.27;63.61;99468.81;10368598;28;1901;-73
2023/08/19 03:22:18;;;;;;;;;;;22.10;73.80;;;21.26;63.42;99456.53;10368449;28;950;-73
2023/08/19 03:27:13;;;;;;;;;;;22.10;73.80;;;21.26;63.62;99445.94;10368850;28;967;-73
2023/08/19 03:32:09;;;;;;;;;;;22.10;73.80;;;21.26;63.43;99439.78;10368330;28;1313;-73
2023/08/19 03:37:04;;;;;;;;;;;22.10;73.80;;;21.27;63.55;99436.16;10367929;28;1906;-73
2023/08/19 03:42:00;;;;;;;;;;;22.10;73.80;;;21.26;63.32;99424.72;10367614;28;914;-73
2023/08/19 03:46:55;;;;;;;;;;;22.10;73.80;;;21.28;63.45;99427.28;10367594;28;823;-72
2023/08/19 03:51:50;;;;;;;;;;;22.10;73.80;;;21.27;63.53;99426.41;10367881;28;894;-73
2023/08/19 03:56:46;;;;;;;;;;;22.10;73.90;;;21.28;63.35;99427.28;10367366;28;1967;-73
2023/08/19 04:01:41;;;;;;;;;;;22.10;73.80;;;21.28;63.76;99443.19;10367471;28;822;-72
2023/08/19 04:06:37;;;;;;;;;;;22.10;73.80;;;21.28;63.33;99435.25;10366423;28;989;-73
2023/08/19 04:11:32;;;;;;;;;;;22.10;73.80;;;21.27;63.50;99436.16;10366843;28;781;-73
2023/08/19 04:16:27;;;;;;;;;;;22.10;73.90;;;21.26;63.57;99430.03;10366633;28;1953;-72
2023/08/19 04:21:23;;;;;;;;;;;22.10;73.80;;;21.26;63.43;99437.13;10366308;28;936;-73
2023/08/19 04:26:18;;;;;;;;;;;22.10;73.80;;;21.26;63.50;99440.63;10366981;28;803;-72
2023/08/19 04:31:14;;;;;;;;;;;22.10;74.00;;;21.26;63.40;99437.13;10366072;28;1492;-73
2023/08/19 04:36:09;;;;;;;;;;;22.10;74.00;;;21.26;63.49;99445.09;10366745;28;1897;-73
2023/08/19 04:41:04;;;;;;;;;;;22.10;74.00;;;21.27;63.40;99450.28;10366112;28;897;-72
2023/08/19 04:46:02;;;;;;;;;;;22.10;74.10;;;21.26;63.62;99447.75;10366171;28;948;-73
2023/08/19 04:51:00;;;;;;;;;;;22.10;74.10;;;21.26;63.57;99445.09;10365927;28;893;-73
2023/08/19 04:55:55;;;;;;;;;;;22.10;74.10;;;21.27;63.42;99444.97;10365701;28;1902;-73
2023/08/19 05:00:52;;;;;;;;;;;22.10;74.10;;;21.26;63.48;99445.94;10365694;28;870;-73
2023/08/19 05:05:47;;;;;;;;;;;22.10;74.20;;;21.24;63.58;99453.97;10365677;28;884;-73
2023/08/19 05:10:42;;;;;;;;;;;22.10;74.10;;;21.25;63.49;99452.19;10367707;28;898;-70
2023/08/19 05:15:38;;;;;;;;;;;22.10;74.10;;;21.26;63.47;99458.34;10373566;28;1902;-73
2023/08/19 05:20:33;;;;;;;;;;;22.10;74.20;;;21.26;63.68;99461.84;10373734;28;863;-73
2023/08/19 05:25:29;;;;;;;;;;;22.10;74.10;;;21.27;63.62;99470.63;10372475;28;871;-71
2023/08/19 05:30:24;;;;;;;;;;;22.10;74.20;;;21.28;63.62;99480.31;10373133;28;1315;-72
2023/08/19 05:35:20;;;;;;;;;;;22.10;74.20;;;21.27;63.60;99476.78;10373263;28;1906;-71
2023/08/19 05:40:15;;;;;;;;;;;22.10;74.20;;;21.26;63.61;99477.75;10372609;28;933;-73
2023/08/19 05:45:10;;;;;;;;;;;22.10;74.10;;;21.27;63.56;99483.88;10372346;28;938;-73
2023/08/19 05:50:06;;;;;;;;;;;22.10;74.10;;;21.26;63.63;99488.34;10372135;28;906;-73
2023/08/19 05:55:01;;;;;;;;;;;22.10;74.20;;;21.26;63.64;99501.59;10371839;28;1906;-73
2023/08/19 05:59:57;;;;;;;;;;;22.10;74.10;;;21.26;63.51;99506.06;10372282;28;795;-73
2023/08/19 06:04:52;;;;;;;;;;;22.10;74.10;;;21.25;63.54;99505.22;10372180;28;865;-73
2023/08/19 06:09:48;;;;;;;;;;;22.10;74.10;;;21.25;63.57;99507.88;10370787;28;889;-73
2023/08/19 06:14:43;;;;;;;;;;;22.10;74.20;;;21.25;63.70;99499.91;10371731;28;1977;-73
2023/08/19 06:19:39;;;;;;;;;;;22.10;74.20;;;21.24;63.45;99495.53;10370444;28;901;-72
2023/08/19 06:24:34;;;;;;;;;;;22.10;74.20;;;21.21;63.67;99496.56;10370263;28;830;-73
2023/08/19 06:29:29;;;;;;;;;;;22.10;74.20;;;21.23;63.46;99488.53;10370174;28;1370;-72
2023/08/19 06:34:25;;;;;;;;;;;22.10;74.20;;;21.23;63.41;99483.25;10370350;28;1909;-71
2023/08/19 06:39:20;;;;;;;;;;;22.10;74.20;;;21.23;63.59;99484.09;10367580;28;1176;-72
2023/08/19 06:44:16;;;;;;;;;;;22.00;74.10;;;21.23;63.43;99481.44;10369482;28;839;-71
2023/08/19 06:49:11;;;;;;;;;;;22.10;74.30;;;21.24;63.50;99500.84;10369360;28;850;-71
2023/08/19 06:54:06;;;;;;;;;;;22.10;74.50;;;21.25;63.41;99507.88;10369452;28;1918;-71
2023/08/19 06:59:02;;;;;;;;;;;22.10;74.60;;;21.24;63.83;99509.63;10368991;28;801;-71
2023/08/19 07:03:58;;;;;;;;;;;22.00;74.60;;;21.24;63.82;99516.75;10369306;28;823;-71
2023/08/19 07:08:53;;;;;;;;;;;22.10;74.60;;;21.23;63.82;99513.25;10368585;28;823;-71
2023/08/19 07:13:49;;;;;;;;;;;22.10;74.60;;;21.23;63.91;99515.91;10368734;28;1918;-71
2023/08/19 07:18:44;;;;;;;;;;;22.00;74.40;;;21.23;63.79;99523.84;10369319;28;866;-71
2023/08/19 07:23:40;;;;;;;;;;;22.00;74.40;;;21.22;64.00;99519.50;10368072;28;884;-71
2023/08/19 07:28:35;;;;;;;;;;;22.00;74.50;;;21.24;63.92;99532.66;10367823;28;1188;-70
2023/08/19 07:33:31;;;;;;;;;;;22.10;74.60;;;21.26;63.95;99530.75;10368719;28;1909;-71
2023/08/19 07:38:26;;;;;;;;;;;22.00;74.40;;;21.29;63.78;99533.22;10368281;28;847;-71
2023/08/19 07:43:22;;;;;;;;;;;22.10;74.50;;;21.31;63.82;99528.69;10367735;28;791;-71
2023/08/19 07:48:17;;;;;;;;;;;22.10;74.60;;;21.32;63.91;99537.47;10367587;28;807;-71
2023/08/19 07:53:13;;;;;;;;;;;22.10;74.70;;;21.32;63.77;99534.81;10367327;28;946;-72
2023/08/19 07:58:08;;;;;;;;;;;22.10;74.80;;;21.33;63.68;99533.91;10367413;28;1914;-71
2023/08/19 08:03:03;;;;;;;;;;;22.10;74.80;;;21.33;63.68;99537.41;10367050;28;904;-71
2023/08/19 08:07:59;;;;;;;;;;;22.10;74.70;;;21.35;63.65;99537.28;10366936;28;823;-70
2023/08/19 08:12:54;;;;;;;;;;;22.10;74.80;;;21.35;63.79;99531.97;10367385;28;867;-71
2023/08/19 08:17:50;;;;;;;;;;;22.10;74.70;;;21.36;63.63;99536.34;10367091;28;1918;-70
2023/08/19 08:22:45;;;;;;;;;;;22.10;74.70;;;21.37;63.74;99532.75;10366537;28;762;-71
2023/08/19 08:27:40;;;;;;;;;;;22.10;74.70;;;21.36;63.64;99521.28;10365988;28;910;-71
2023/08/19 08:32:36;;;;;;;;;;;22.10;74.70;;;21.36;63.65;99531.06;10367286;28;1218;-71
2023/08/19 08:37:31;;;;;;;;;;;22.10;74.80;;;21.37;63.78;99532.75;10366152;28;1918;-71
2023/08/19 08:42:27;;;;;;;;;;;22.10;74.80;;;21.37;63.80;99538.06;10366344;28;854;-71
2023/08/19 08:47:22;;;;;;;;;;;22.10;74.80;;;21.37;63.74;99544.19;10370732;28;774;-71
2023/08/19 08:52:17;;;;;;;;;;;22.10;74.80;;;21.36;63.63;99554.91;10374438;28;922;-71
2023/08/19 08:57:16;;;;;;;;;;;22.10;74.70;;;21.36;63.63;99557.56;10373588;28;1973;-71
2023/08/19 09:02:14;;;;;;;;;;;22.10;74.80;;;21.35;63.80;99577.06;10373924;28;886;-71
2023/08/19 09:07:10;;;;;;;;;;;22.10;74.80;;;21.35;63.84;99579.72;10374461;28;889;-71
2023/08/19 09:12:05;;;;;;;;;;;22.10;74.80;;;21.35;63.89;99577.06;10374248;28;863;-71
2023/08/19 09:17:00;;;;;;;;;;;22.10;74.80;;;21.35;63.56;99577.06;10373511;28;1977;-71
2023/08/19 09:21:56;;;;;;;;;;;22.10;74.80;;;21.35;63.89;99574.41;10373288;28;863;-71
2023/08/19 09:26:51;;;;;;;;;;;22.10;74.80;;;21.35;63.80;99575.28;10373629;28;945;-71
2023/08/19 09:31:47;;;;;;;;;;;22.10;74.80;;;21.36;63.73;99568.19;10372169;28;1613;-71
2023/08/19 09:36:42;;;;;;;;;;;22.10;74.70;;;21.38;63.67;99555.72;10373256;28;1921;-71
2023/08/19 09:41:38;;;;;;;;;;;22.10;74.70;;;21.39;63.41;99563.56;10372170;28;969;-70
2023/08/19 09:46:33;;;;;;;;;;;22.10;74.60;;;21.41;63.47;99560.81;10372961;28;879;-71
2023/08/19 09:51:29;;;;;;;;;;;22.10;74.70;;;21.40;63.48;99559.09;10372133;28;822;-71
2023/08/19 09:56:24;;;;;;;;;;;22.10;74.70;;;21.40;63.49;99570.56;10371572;28;2283;-69
2023/08/19 10:01:22;;;;;;;;;;;22.10;74.80;;;21.40;63.49;99565.25;10371909;28;870;-71
2023/08/19 10:06:18;;;;;;;;;;;22.10;74.70;;;21.41;63.37;99574.09;10372705;28;853;-73
2023/08/19 10:11:15;;;;;;;;;;;22.10;74.70;;;21.41;63.63;99579.38;10371361;28;771;-73
2023/08/19 10:16:10;;;;;;;;;;;22.10;74.70;;;21.41;63.71;99590.84;10371167;28;1969;-71
2023/08/19 10:21:05;;;;;;;;;;;22.10;74.80;;;21.44;63.66;99600.41;10370912;28;934;-73
2023/08/19 10:26:01;;;;;;;;;;;22.10;74.90;;;21.42;63.56;99604.94;10371208;28;955;-73
2023/08/19 10:30:56;;;;;;;;;;;22.10;74.90;;;21.42;63.74;99615.56;10371347;28;1136;-73
2023/08/19 10:35:51;;;;;;;;;;;22.10;74.90;;;21.42;63.81;99605.78;10370365;28;1910;-73
2023/08/19 10:40:47;;;;;;;;;;;22.10;74.90;;;21.44;63.66;99616.31;10371027;28;785;-74
2023/08/19 10:45:47;;;;;;;;;;;22.10;74.90;;;21.44;63.63;99619.81;10370579;28;781;-71
2023/08/19 10:50:43;;;;;;;;;;;22.10;74.80;;;21.45;63.36;99637.41;10370756;28;834;-71
2023/08/19 10:55:38;;;;;;;;;;;22.10;74.80;;;21.46;63.43;99633.00;10369535;28;1983;-73
2023/08/19 11:00:34;;;;;;;;;;;22.10;74.80;;;21.46;63.39;99643.59;10370831;28;881;-73
2023/08/19 11:05:30;;;;;;;;;;;22.10;74.80;;;21.47;63.57;99647.09;10369107;28;913;-73
2023/08/19 11:10:25;;;;;;;;;;;22.10;74.80;;;21.48;63.53;99646.16;10368839;28;1059;-74
2023/08/19 11:15:20;;;;;;;;;;;22.10;75.20;;;21.48;63.41;99652.28;10368753;28;1914;-73
2023/08/19 11:20:16;;;;;;;;;;;22.10;74.70;;;21.51;63.27;99643.31;10370220;28;863;-73
2023/08/19 11:25:12;;;;;;;;;;;22.10;74.70;;;21.52;63.47;99651.19;10369106;28;787;-72
2023/08/19 11:30:07;;;;;;;;;;;22.20;74.70;;;21.53;63.01;99658.19;10369407;28;1195;-73
2023/08/19 11:35:03;;;;;;;;;;;22.20;74.70;;;21.53;63.37;99650.22;10368688;28;1921;-72
2023/08/19 11:39:58;;;;;;;;;;;22.20;74.70;;;21.54;63.20;99646.63;10367948;28;822;-73
2023/08/19 11:44:53;;;;;;;;;;;22.20;74.70;;;21.55;63.22;99647.50;10368390;28;779;-73
2023/08/19 11:49:49;;;;;;;;;;;22.20;74.60;;;21.58;63.34;99647.28;10367298;28;909;-72
2023/08/19 11:54:44;;;;;;;;;;;22.20;74.60;;;21.58;63.33;99658.75;10367239;28;1963;-74
2023/08/19 11:59:40;;;;;;;;;;;22.20;74.60;;;21.60;63.27;99662.16;10367284;28;835;-71
2023/08/19 12:04:35;;;;;;;;;;;22.20;74.50;;;21.63;62.98;99669.94;10367855;28;818;-70
2023/08/19 12:09:31;;;;;;;;;;;22.30;75.50;;;21.63;63.09;99682.34;10366513;28;921;-73
2023/08/19 12:14:26;;;;;;;;;;;22.20;74.50;;;21.63;63.33;99693.81;10367240;28;1981;-74
2023/08/19 12:19:21;;;;;;;;;;;22.20;74.60;;;21.63;63.30;99704.41;10365955;28;988;-74
2023/08/19 12:24:17;;;;;;;;;;;22.20;74.60;;;21.63;63.30;99724.78;10366203;28;887;-73
2023/08/19 12:29:12;;;;;;;;;;;22.20;74.70;;;21.62;63.42;99723.94;10366710;28;1263;-71
2023/08/19 12:34:08;;;;;;;;;;;22.30;74.90;;;21.63;63.47;99736.25;10366216;28;1922;-71
2023/08/19 12:39:04;;;;;;;;;;;22.30;74.90;;;21.64;63.63;99747.72;10366681;28;876;-71
2023/08/19 12:43:59;;;;;;;;;;;22.30;75.00;;;21.64;63.32;99753.91;10366581;28;966;-71
2023/08/19 12:48:54;;;;;;;;;;;22.30;75.00;;;21.62;63.59;99762.88;10366330;28;838;-71
2023/08/19 12:53:50;;;;;;;;;;;22.30;75.10;;;21.61;63.53;99772.66;10365570;28;1973;-71
2023/08/19 12:58:45;;;;;;;;;;;22.30;75.00;;;21.60;63.67;99789.50;10366198;28;799;-71
2023/08/19 13:03:41;;;;;;;;;;;22.30;75.00;;;21.60;63.63;99805.41;10366285;28;790;-72
2023/08/19 13:08:36;;;;;;;;;;;22.30;75.00;;;21.61;63.51;99830.13;10365509;28;811;-72
2023/08/19 13:13:31;;;;;;;;;;;22.30;74.90;;;21.61;63.58;99843.38;10365923;28;1967;-72
2023/08/19 13:18:27;;;;;;;;;;;22.30;75.00;;;21.64;63.58;99881.22;10364544;28;942;-73
2023/08/19 13:23:22;;;;;;;;;;;22.30;75.00;;;21.71;63.24;99883.50;10365154;28;863;-72
2023/08/19 13:28:18;;;;;;;;;;;22.30;75.00;;;21.69;63.48;99883.59;10365217;28;1096;-72
2023/08/19 13:33:13;;;;;;;;;;;22.30;75.00;;;21.71;63.34;99886.16;10367283;28;787;-72
2023/08/19 13:38:09;;;;;;;;;;;22.30;75.00;;;21.71;63.46;99892.31;10371905;28;1967;-72
2023/08/19 13:43:04;;;;;;;;;;;22.30;75.00;;;21.67;63.36;99907.56;10373022;28;869;-72
2023/08/19 13:48:00;;;;;;;;;;;22.30;75.00;;;21.67;63.57;99904.06;10371479;28;895;-73
2023/08/19 13:52:56;;;;;;;;;;;22.30;75.10;;;21.65;63.48;99920.06;10371778;28;871;-73
2023/08/19 13:57:53;;;;;;;;;;;22.30;75.00;;;21.66;63.75;99931.53;10371590;28;1897;-72
2023/08/19 14:02:48;;;;;;;;;;;22.30;75.10;;;21.66;63.58;99940.31;10370836;28;1333;-72
2023/08/19 14:07:45;;;;;;;;;;;22.30;75.90;;;21.67;63.83;99941.22;10370703;28;984;-72
2023/08/19 14:12:41;;;;;;;;;;;22.30;75.10;;;21.69;63.45;99949.06;10371768;28;822;-73
2023/08/19 14:17:36;;;;;;;;;;;22.30;75.00;;;21.67;63.65;99942.06;10370835;28;1953;-72
2023/08/19 14:22:32;;;;;;;;;;;22.30;75.10;;;21.67;63.64;99949.16;10370761;28;781;-72
2023/08/19 14:27:27;;;;;;;;;;;22.40;75.30;;;21.67;63.70;99959.78;10370418;28;1644;-71
2023/08/19 14:32:22;;;;;;;;;;;22.30;75.30;;;21.66;63.72;99958.91;10370284;28;1508;-73
2023/08/19 14:37:18;;;;;;;;;;;22.40;75.40;;;21.65;63.85;99954.53;10370149;28;1969;-72
2023/08/19 14:42:13;;;;;;;;;;;22.30;75.30;;;21.66;63.81;99952.75;10370540;28;779;-74
2023/08/19 14:47:09;;;;;;;;;;;22.40;75.40;;;21.66;63.90;99955.41;10369652;28;854;-73
2023/08/19 14:52:05;;;;;;;;;;;22.40;75.40;;;21.65;63.82;99951.91;10370315;28;789;-74
2023/08/19 14:57:01;;;;;;;;;;;22.40;75.30;;;21.65;63.69;99951.91;10369829;28;1901;-74
2023/08/19 15:01:56;;;;;;;;;;;22.40;75.40;;;21.65;64.03;99962.50;10369232;28;830;-75
2023/08/19 15:06:52;;;;;;;;;;;22.40;75.40;;;21.65;63.88;99981.06;10368978;28;1063;-74
2023/08/19 15:11:47;;;;;;;;;;;22.40;75.40;;;21.65;64.04;99972.28;10368698;28;977;-74
2023/08/19 15:16:43;;;;;;;;;;;22.40;75.30;;;21.64;63.90;99944.00;10368568;28;1963;-73
2023/08/19 15:21:38;;;;;;;;;;;22.40;75.30;;;21.65;63.83;99941.28;10368459;28;936;-72
2023/08/19 15:26:33;;;;;;;;;;;22.40;75.30;;;21.64;64.02;99926.31;10368507;28;787;-72
2023/08/19 15:31:32;;;;;;;;;;;22.40;75.30;;;21.65;64.10;99913.91;10368712;28;1209;-72
2023/08/19 15:36:27;;;;;;;;;;;22.40;75.40;;;21.67;63.87;99920.84;10368886;28;1898;-72
2023/08/19 15:41:23;;;;;;;;;;;22.40;75.40;;;21.69;63.83;99941.09;10367792;28;838;-74
2023/08/19 15:46:18;;;;;;;;;;;22.40;75.20;;;21.71;63.97;99944.53;10350449;28;783;-74
2023/08/19 15:51:13;;;;;;;;;;;22.40;75.40;;;21.71;63.86;99948.03;10367918;28;905;-74
2023/08/19 15:56:09;;;;;;;;;;;22.40;75.40;;;21.73;64.05;99932.91;10366407;28;1906;-74
2023/08/19 16:01:04;;;;;;;;;;;22.40;75.30;;;21.72;63.92;99947.13;10366671;28;954;-73
2023/08/19 16:06:00;;;;;;;;;;;22.40;76.20;;;21.74;64.03;99970.88;10367086;28;1147;-75
2023/08/19 16:10:55;;;;;;;;;;;22.50;75.50;;;21.73;63.92;99969.19;10367574;28;898;-74
2023/08/19 16:15:50;;;;;;;;;;;22.50;75.40;;;21.71;63.95;99977.22;10366825;28;1967;-75
2023/08/19 16:20:46;;;;;;;;;;;22.50;75.50;;;21.71;64.05;99973.72;10366097;28;972;-75
2023/08/19 16:25:41;;;;;;;;;;;22.50;75.50;;;21.71;64.04;99973.72;10366693;28;965;-74
2023/08/19 16:30:36;;;;;;;;;;;22.50;75.60;;;21.71;64.28;99969.25;10367157;28;1196;-75
2023/08/19 16:35:32;;;;;;;;;;;22.50;75.60;;;21.72;64.35;99970.09;10366037;28;1961;-74
2023/08/19 16:40:27;;;;;;;;;;;22.50;75.50;;;21.77;63.97;99981.31;10366398;28;814;-75
2023/08/19 16:45:23;;;;;;;;;;;22.50;75.50;;;21.77;64.02;99971.59;10366160;28;880;-72
2023/08/19 16:50:18;;;;;;;;;;;22.50;75.40;;;21.76;64.10;99979.63;10366046;28;869;-79
2023/08/19 16:55:14;;;;;;;;;;;22.50;75.30;;;21.76;64.14;99982.28;10366513;28;1905;-74
2023/08/19 17:00:09;;;;;;;;;;;22.50;76.20;;;21.75;63.98;99991.19;10365818;28;870;-74
2023/08/19 17:05:05;;;;;;;;;;;22.50;75.30;;;21.75;64.09;99978.78;10365827;28;779;-75
2023/08/19 17:10:00;;;;;;;;;;;22.50;75.30;;;21.76;64.01;99980.47;10372854;28;863;-75
2023/08/19 17:14:56;;;;;;;;;;;22.50;75.30;;;21.77;63.87;99986.63;10373781;28;1961;-75
2023/08/19 17:19:51;;;;;;;;;;;22.50;75.20;;;21.81;64.02;99998.78;10373580;28;944;-75
2023/08/19 17:24:47;;;;;;;;;;;22.60;75.30;;;21.82;63.86;99997.84;10373498;28;863;-74
2023/08/19 17:29:43;;;;;;;;;;;22.60;75.30;;;21.81;63.84;99998.78;10372560;28;1413;-74
2023/08/19 17:34:38;;;;;;;;;;;22.60;75.20;;;21.81;63.95;99998.78;10373451;28;1910;-74
2023/08/19 17:39:33;;;;;;;;;;;22.60;75.20;;;21.81;63.71;99999.66;10372959;28;822;-74
2023/08/19 17:44:32;;;;;;;;;;;22.60;75.20;;;21.80;63.87;100007.72;10373188;28;901;-74
2023/08/19 17:49:27;;;;;;;;;;;22.60;75.10;;;21.79;63.79;100016.59;10372446;28;808;-74
2023/08/19 17:54:24;;;;;;;;;;;22.60;75.20;;;21.79;63.85;100019.25;10371650;28;1901;-69
2023/08/19 17:59:20;;;;;;;;;;;22.60;75.10;;;21.80;64.00;100015.66;10371949;28;789;-74
2023/08/19 18:04:15;;;;;;;;;;;22.60;75.10;;;21.80;63.84;100015.66;10372000;28;795;-74
2023/08/19 18:09:10;;;;;;;;;;;22.60;75.10;;;21.79;63.99;100021.91;10372413;28;818;-74
2023/08/19 18:14:07;;;;;;;;;;;22.60;75.00;;;21.78;63.99;100022.84;10371333;28;1901;-75
2023/08/19 18:19:02;;;;;;;;;;;22.60;75.10;;;21.77;64.09;100027.31;10370251;28;1227;-74
2023/08/19 18:23:57;;;;;;;;;;;22.60;75.00;;;21.76;64.06;100033.53;10371011;28;912;-74
2023/08/19 18:28:53;;;;;;;;;;;22.60;75.00;;;21.76;63.96;100030.88;10352990;28;1117;-74
2023/08/19 18:33:48;;;;;;;;;;;22.60;75.00;;;21.75;64.20;100031.84;10370494;28;1914;-74
2023/08/19 18:38:44;;;;;;;;;;;22.60;74.90;;;21.76;64.03;100028.22;10370469;28;859;-74
2023/08/19 18:43:39;;;;;;;;;;;22.60;74.90;;;21.75;63.90;100020.38;10370844;28;918;-74
2023/08/19 18:48:34;;;;;;;;;;;22.60;74.90;;;21.74;64.02;100023.94;10370608;28;870;-74
2023/08/19 18:53:30;;;;;;;;;;;22.60;74.90;;;21.75;63.89;100033.66;10369766;28;861;-72
2023/08/19 18:58:26;;;;;;;;;;;22.60;74.90;;;21.77;64.06;100045.00;10370220;28;1905;-75
2023/08/19 19:03:21;;;;;;;;;;;22.60;74.80;;;21.76;64.14;100053.91;10370118;28;926;-74
2023/08/19 19:08:16;;;;;;;;;;;22.70;75.00;;;21.75;64.22;100061.03;10369379;28;889;-75
2023/08/19 19:13:13;;;;;;;;;;;22.70;75.10;;;21.74;64.02;100061.09;10369144;28;796;-74
2023/08/19 19:18:08;;;;;;;;;;;22.70;75.80;;;21.74;64.21;100067.25;10368753;28;1910;-75
2023/08/19 19:23:04;;;;;;;;;;;22.70;74.90;;;21.74;63.98;100083.16;10368750;28;871;-74
2023/08/19 19:27:59;;;;;;;;;;;22.70;75.00;;;21.74;64.22;100087.63;10368046;28;1187;-75
2023/08/19 19:32:54;;;;;;;;;;;22.70;74.90;;;21.75;64.22;100092.00;10368351;28;1082;-73
2023/08/19 19:37:50;;;;;;;;;;;22.70;74.90;;;21.73;63.93;100086.78;10368681;28;1906;-74
2023/08/19 19:42:45;;;;;;;;;;;22.70;74.80;;;21.73;64.16;100096.53;10367906;28;775;-74
2023/08/19 19:47:41;;;;;;;;;;;22.70;74.80;;;21.73;64.06;100105.34;10368410;28;867;-75
2023/08/19 19:52:36;;;;;;;;;;;22.70;74.80;;;21.74;64.09;100100.91;10368205;28;865;-75
2023/08/19 19:57:31;;;;;;;;;;;22.70;74.80;;;21.73;63.95;100107.16;10367421;28;1901;-75
2023/08/19 20:02:27;;;;;;;;;;;22.70;74.80;;;21.74;64.30;100114.16;10367284;28;790;-75
2023/08/19 20:07:22;;;;;;;;;;;22.70;74.80;;;21.72;64.21;100108.97;10367675;28;803;-75
2023/08/19 20:12:18;;;;;;;;;;;22.70;74.80;;;21.74;64.23;100124.78;10367112;28;853;-68
2023/08/19 20:17:13;;;;;;;;;;;22.70;74.80;;;21.77;64.01;100121.94;10366704;28;1961;-73
2023/08/19 20:22:09;;;;;;;;;;;22.70;74.80;;;21.76;64.02;100125.56;10366615;28;861;-74
2023/08/19 20:27:04;;;;;;;;;;;22.70;74.60;;;21.74;64.24;100130.94;10367146;28;791;-74
2023/08/19 20:31:59;;;;;;;;;;;22.70;74.70;;;21.75;64.01;100123.84;10366606;28;1577;-74
2023/08/19 20:36:55;;;;;;;;;;;22.70;74.70;;;21.74;64.25;100125.63;10366274;28;1910;-74
2023/08/19 20:41:51;;;;;;;;;;;22.70;74.70;;;21.73;64.28;100126.56;10370886;28;850;-74
2023/08/19 20:46:46;;;;;;;;;;;22.70;74.70;;;21.73;64.17;100129.22;10379866;28;798;-75
2023/08/19 20:51:42;;;;;;;;;;;22.70;74.70;;;21.74;64.11;100136.25;10380954;28;809;-75
2023/08/19 20:56:37;;;;;;;;;;;22.70;74.60;;;21.73;64.33;100142.50;10379885;28;1969;-75
2023/08/19 21:01:32;;;;;;;;;;;22.70;74.60;;;21.73;63.99;100142.50;10379676;28;895;-74
2023/08/19 21:06:28;;;;;;;;;;;22.70;74.60;;;21.75;64.25;100145.09;10379842;28;766;-74
2023/08/19 21:11:24;;;;;;;;;;;22.70;74.60;;;21.74;64.24;100140.69;10379557;28;925;-75
2023/08/19 21:16:19;;;;;;;;;;;22.70;74.60;;;21.75;64.08;100142.44;10379493;28;1910;-74
2023/08/19 21:21:15;;;;;;;;;;;22.70;74.60;;;21.75;64.07;100139.78;10379942;28;839;-75
2023/08/19 21:26:10;;;;;;;;;;;22.70;74.60;;;21.74;64.02;100146.84;10379819;28;847;-74
2023/08/19 21:31:05;;;;;;;;;;;22.70;74.60;;;21.74;64.16;100138.03;10379464;28;1092;-74
2023/08/19 21:36:01;;;;;;;;;;;22.70;74.50;;;21.74;64.08;100146.84;10379798;28;1910;-74
2023/08/19 21:40:56;;;;;;;;;;;22.70;74.50;;;21.75;64.21;100153.03;10378894;28;799;-75
2023/08/19 21:45:52;;;;;;;;;;;22.70;74.50;;;21.75;63.97;100150.38;10378402;28;921;-74
2023/08/19 21:50:47;;;;;;;;;;;22.70;74.50;;;21.74;64.16;100146.00;10361043;28;854;-75
2023/08/19 21:55:44;;;;;;;;;;;22.70;74.50;;;21.73;64.00;100158.41;10372588;28;1965;-74
2023/08/19 22:00:40;;;;;;;;;;;22.70;74.50;;;21.74;64.21;100157.47;10372577;28;830;-74
2023/08/19 22:05:35;;;;;;;;;;;22.70;74.40;;;21.73;64.05;100155.75;10372411;28;791;-74
2023/08/19 22:10:31;;;;;;;;;;;22.70;74.40;;;21.74;63.94;100165.44;10370968;28;957;-74
2023/08/19 22:15:26;;;;;;;;;;;22.70;74.50;;;21.74;64.00;100164.56;10371345;28;1909;-74
2023/08/19 22:20:21;;;;;;;;;;;22.70;74.40;;;21.74;64.21;100161.91;10372449;28;868;-74
2023/08/19 22:25:17;;;;;;;;;;;22.70;74.50;;;21.74;64.11;100178.69;10371002;28;791;-74
2023/08/19 22:30:12;;;;;;;;;;;22.70;74.40;;;21.74;63.97;100180.50;10371942;28;1733;-75
2023/08/19 22:35:08;;;;;;;;;;;22.70;74.40;;;21.75;63.93;100182.22;10370597;28;1973;-74
2023/08/19 22:40:04;;;;;;;;;;;22.70;74.40;;;21.74;63.89;100177.84;10370613;28;807;-75